SBSPSBJV

Guest
Details From SBSP - Sao Paulo Congonhas
To SBJV - LAURO CARNEIRO DE LOYOLA
Flight Number -
Tags generated
Created
Modified
Stats Distance 195 nm / 361 km
Max Altitude 20,000 ft / 6,096 m
Waypoints 3
Social Downloads 5
Likes 0
Share VATSIM

Download

Looking for another format? Having issues loading an existing format? Contact us
Advertisement - Login to hide

Notes

Basic altitude profile: - Ascent Rate: 2500ft/min - Ascent Speed: 250kts - Cruise Altitude: 27000ft - Cruise Speed: 420kts - Descent Rate: 1500ft/min - Descent Speed: 250kts Options: - Use NATs: yes - Use PACOTS: yes - Use low airways: yes - Use high airways: yes

Route

SBSP ELANU SBJV

ID Type Via Altitude Latitude Longitude Leg Dist Tot Dist Heading (true) Name
O SBSP APT - 0 ft / 0 m -23.62669˚ -46.65538˚ - 0 nm - Sao Paulo Congonhas
ELANU FIX - 20,000 ft / 6,096 m -24.89583˚ -47.74117˚ 96 nm 96 nm 218° / 218° -
O SBJV APT - 0 ft / 0 m -26.22445˚ -48.79736˚ 98 nm 194 nm 215° / 216° LAURO CARNEIRO DE LOYOLA

Altitude Profile

Advertisement - Login to hide

Weather


0- 5 10 15 20 25 30 35+ Temperature / ° C

Clouds and Precipitation
Forecast for 2017-12-17 06:00 UTC. Updated 2 hours ago

Ground ~20,000 ft ~40,000 ft Winds

SBSP

Details ICAO SBSP (CGH)
Name Sao Paulo Congonhas
Region Brazil
Timezone America/Sao_Paulo (UTC-2.0)
Stats Elevation 2,631 ft / 802 m (AMSL)
Location -23.626693° -46.655377°
Runways 2
Magnetic Variation 21.296° W

METAR

SBSP 170200Z AUTO VRB02KT CAVOK 23/17 Q1017

Decode

TAF

TAF SBSP 162105Z 1700/1724 09002KT CAVOK TN20/1708Z TX30/1717Z BECMG 1704/1706 06002KT BECMG 1710/1712 31005KT BECMG 1714/1716 SCT045 PROB30 1718/1720 6000 TSRA SCT045 FEW050CB BECMG 1720/1722 13003KT CAVOK RMK PGF

Decode

Departure Runways

ID Width Length Bearing (true) Bearing (mag) Surface Threshold Offset Overrun Length
17L 147 ft / 45 m 4,726 ft / 1,441 m 147.28° 168.58° Asphalt 0 ft / 0 m 220 ft / 67 m
17R 147 ft / 45 m 6,406 ft / 1,953 m 147.39° 168.69° Asphalt 413 ft / 126 m 0 ft / 0 m
35L 147 ft / 45 m 6,406 ft / 1,953 m 327.38° 348.68° Asphalt 200 ft / 61 m 0 ft / 0 m
35R 147 ft / 45 m 4,726 ft / 1,441 m 327.28° 348.58° Asphalt 0 ft / 0 m 0 ft / 0 m

SBJV

Details ICAO SBJV (JOI)
Name LAURO CARNEIRO DE LOYOLA
Region Brazil
Timezone Unknown (UTC+0.0)
Stats Elevation 15 ft / 5 m (AMSL)
Location -26.224452° -48.797362°
Runways 1
Magnetic Variation 19.628° W

METAR

Not found

TAF

TAF SBJV 162130Z 1700/1712 03005KT 9999 SCT025 TX26/1700Z TN21/1708Z BECMG 1700/1702 31005KT SCT015 BECMG 1702/1704 BKN012 BECMG 1708/1710 SCT015 BECMG 1710/1712 06008KT SCT035 RMK PER

Decode

Destination Runways

ID Width Length Bearing (true) Bearing (mag) Surface Threshold Offset Overrun Length
15 148 ft / 45 m 5,382 ft / 1,640 m 128.89° 148.52° Asphalt 0 ft / 0 m 200 ft / 61 m
33 148 ft / 45 m 5,382 ft / 1,640 m 308.88° 328.51° Asphalt 0 ft / 0 m 200 ft / 61 m